Airport ID:K65S
Update Time (UTC):15/04/2024 16:09
Wind Speed (Knots):3
Wind Direction (Magnetic):140
Temperature (°C):10
Dew Point (°C):2
Humidity (%):59
Altimeter (inHg):29.86
Density Altitude (Feet):
Visibility:10+
Clouds (Hundreds of feet):BKN085
Present Weather:
METAR:METAR K65S 151605Z AUTO 00000KT 10SM BKN085 10/02 A2986 RMK AO2

The data displayed is for advisory purposes only and is not to be used for flight planning or operations.